DW4212 La Cabrera ES current weather conditions

sailwx.info

Wind from 067

Air temperature 0.6° C
Dewpoint -2.5° C

Last reported at 2017-Dec-13 00:59 UTC.
Time now 2017-Dec-13 01:19 UTC

Location: N 40°53' W 003°35'.
View on Google Maps.

See reports from other nearby stations

  
Tides and Currents Weather Stations Pressure Air Temp Water Temp Dewpoint Dewpoint Depression Visibility Wind Speed Wind Dir Waves Ship Positions
date/time (UTC)wind fromknots sea level pressurealtimeterstation pressurevisibilityair tempwater tempwave heightnotes
2017-Dec-13 00:59 067 0.6
2017-Dec-13 00:49 067 0.6
2017-Dec-13 00:39 067 1.1
2017-Dec-13 00:29 067 0 gusting 3 0.6
2017-Dec-13 00:19 005 -0.0
2017-Dec-13 00:09 005 -0.0
2017-Dec-12 23:59 005 -0.0
2017-Dec-12 23:49 005 -0.0
2017-Dec-12 23:39 005 -0.6
2017-Dec-12 23:29 005 -0.0
2017-Dec-12 23:19 005 -0.0
2017-Dec-12 23:09 005 -0.0
2017-Dec-12 22:59 005 -0.0
2017-Dec-12 22:49 005 -0.0
2017-Dec-12 22:39 005 -0.0
2017-Dec-12 22:29 005 0 gusting 2 -0.0
2017-Dec-12 22:19 005 -0.0
2017-Dec-12 22:09 005 -0.0
2017-Dec-12 21:59 005 0.6
2017-Dec-12 21:49 005 0.6
2017-Dec-12 21:39 005 0 gusting 3 0.6
2017-Dec-12 21:29 005 0.6
2017-Dec-12 21:19 005 1.1
2017-Dec-12 21:09 005 1.1
2017-Dec-12 20:59 005 1.1
2017-Dec-12 20:49 005 1.7
2017-Dec-12 20:39 009 0 gusting 6 1.7
2017-Dec-12 20:29 360 5 gusting 9 1.7
2017-Dec-12 20:19 340 4 gusting 8 1.7
2017-Dec-12 20:09 005 3 gusting 7 1.7
2017-Dec-12 19:59 009 4 gusting 6 1.7
2017-Dec-12 19:49 351 3 gusting 6 1.7
2017-Dec-12 19:39 339 2 gusting 9 2.2
2017-Dec-12 19:29 011 6 gusting 12 2.2
2017-Dec-12 19:19 332 3 gusting 8 2.2
2017-Dec-12 19:09 360 3 gusting 9 2.2
2017-Dec-12 18:59 360 4 gusting 8 2.2
2017-Dec-12 18:49 360 5 gusting 12 2.2
2017-Dec-12 18:39 338 6 gusting 12 2.2
2017-Dec-12 18:29 345 6 gusting 11 2.2
2017-Dec-12 18:19 005 6 gusting 10 1.7
2017-Dec-12 18:09 355 3 gusting 7 2.2
2017-Dec-12 17:59 333 5 gusting 11 2.2
2017-Dec-12 17:49 349 6 gusting 11 2.2
2017-Dec-12 17:39 348 4 gusting 7 2.2
2017-Dec-12 17:29 351 4 gusting 6 2.2
2017-Dec-12 17:19 355 0 gusting 4 2.2
2017-Dec-12 17:09 350 1 gusting 6 2.2
2017-Dec-12 16:59 355 0 gusting 4 2.8
2017-Dec-12 16:49 005 1 gusting 6 2.8
2017-Dec-12 16:39 360 2.8
2017-Dec-12 16:29 355 3.3
2017-Dec-12 16:19 340 0 gusting 5 3.3
2017-Dec-12 16:09 338 0 gusting 4 3.9
2017-Dec-12 15:59 349 1 gusting 7 3.9
2017-Dec-12 15:49 304 3 gusting 10 3.9
2017-Dec-12 15:39 314 0 gusting 5 3.9
2017-Dec-12 15:29 319 0 gusting 8 4.4
2017-Dec-12 15:19 329 2 gusting 8 4.4
2017-Dec-12 15:09 312 1 gusting 6 5.0
2017-Dec-12 14:59 331 1 gusting 6 5.0
2017-Dec-12 14:49 305 3 gusting 8 5.0
2017-Dec-12 14:39 327 3 gusting 9 5.0
2017-Dec-12 14:29 322 2 gusting 6 4.4
2017-Dec-12 14:19 290 2 gusting 10 5.0
2017-Dec-12 14:09 300 3 gusting 7 5.0
2017-Dec-12 13:59 341 0 gusting 5 4.4
2017-Dec-12 13:49 027 0 gusting 8 4.4
2017-Dec-12 13:39 059 6 gusting 8 5.0
2017-Dec-12 13:29 355 1 gusting 4 5.6
2017-Dec-12 13:19 077 1 gusting 6 5.0
2017-Dec-12 13:09 086 5.0
2017-Dec-12 12:59 089 0 gusting 7 4.4
2017-Dec-12 12:49 071 3 gusting 6 4.4
2017-Dec-12 12:39 071 3 gusting 6 5.0
2017-Dec-12 12:29 355 5.0
2017-Dec-12 12:19 355 1 gusting 6 5.0
2017-Dec-12 12:09 242 0 gusting 4 4.4
2017-Dec-12 11:59 071 0 gusting 3 3.9
2017-Dec-12 11:49 089 3.9
2017-Dec-12 11:39 085 3.9
2017-Dec-12 11:29 057 0 gusting 6 3.9
2017-Dec-12 11:19 092 1 gusting 5 3.9
2017-Dec-12 11:09 040 3.9
2017-Dec-12 10:59 037 3.3
2017-Dec-12 10:49 082 2.8
2017-Dec-12 10:39 082 0 gusting 4 2.8
2017-Dec-12 10:29 082 2.8
2017-Dec-12 10:19 078 2.8
2017-Dec-12 10:09 057 2.8
2017-Dec-12 09:59 067 2.8
2017-Dec-12 09:49 069 0 gusting 6 2.2
2017-Dec-12 09:39 079 0 gusting 3 1.7
2017-Dec-12 09:29 092 0 gusting 2 1.7
2017-Dec-12 09:19 105 1.1
2017-Dec-12 09:09 105 0 gusting 3 1.1
2017-Dec-12 08:59 315 0.6
2017-Dec-12 08:49 315 0.6
2017-Dec-12 08:39 315 -0.0
2017-Dec-12 08:29 065 0 gusting 5 -0.0
2017-Dec-12 08:19 323 1 gusting 7 -0.0
2017-Dec-12 08:09 323 4 gusting 12 -0.0
2017-Dec-12 07:59 005 4 gusting 9 -0.6
2017-Dec-12 07:49 320 4 gusting 10 -0.6
2017-Dec-12 07:39 343 2 gusting 6 -0.6
2017-Dec-12 07:29 360 4 gusting 9 -0.6
2017-Dec-12 07:19 013 5 gusting 10 -0.6
2017-Dec-12 07:09 360 7 gusting 12 -0.6
2017-Dec-12 06:59 015 6 gusting 10 -0.6
2017-Dec-12 06:49 014 7 gusting 14 -0.6
2017-Dec-12 06:39 005 7 gusting 13 -0.6
2017-Dec-12 06:29 028 7 gusting 13 -0.6
2017-Dec-12 06:19 338 6 gusting 11 -0.6
2017-Dec-12 06:09 348 6 gusting 11 -0.6
2017-Dec-12 05:59 360 6 gusting 11 -0.6
2017-Dec-12 05:49 347 6 gusting 13 -0.6
2017-Dec-12 05:39 323 6 gusting 12 -0.6
2017-Dec-12 05:29 350 5 gusting 11 -0.6
2017-Dec-12 05:19 325 6 gusting 15 -0.6
2017-Dec-12 05:09 347 7 gusting 12 -0.6
2017-Dec-12 04:59 355 4 gusting 12 -0.6
2017-Dec-12 04:49 342 6 gusting 12 -0.6
2017-Dec-12 04:39 340 6 gusting 11 -0.6
2017-Dec-12 04:29 325 6 gusting 12 -0.0
2017-Dec-12 04:19 355 6 gusting 13 -0.0
2017-Dec-12 04:09 313 7 gusting 14 -0.0
2017-Dec-12 03:59 319 7 gusting 15 -0.0
2017-Dec-12 03:49 339 7 gusting 14 -0.0
2017-Dec-12 03:39 304 6 gusting 13 -0.0
2017-Dec-12 03:29 331 9 gusting 14 -0.0
2017-Dec-12 03:19 355 6 gusting 11 -0.0
2017-Dec-12 03:09 350 6 gusting 13 -0.0
2017-Dec-12 02:59 302 6 gusting 15 -0.0
2017-Dec-12 02:49 346 7 gusting 14 -0.0
2017-Dec-12 02:39 349 8 gusting 16 -0.0
2017-Dec-12 02:29 328 9 gusting 14 -0.0
2017-Dec-12 02:19 344 6 gusting 13 -0.6
2017-Dec-12 02:09 323 4 gusting 12 -0.0
2017-Dec-12 01:59 330 6 gusting 11 -0.0
2017-Dec-12 01:49 005 6 gusting 10 -0.0
2017-Dec-12 01:39 329 4 gusting 6 -0.0
2017-Dec-12 01:29 317 1 gusting 8 -0.0
2017-Dec-12 01:19 323 0 gusting 6 -0.0
2017-Dec-12 01:09 321 3 gusting 9 -0.0
2017-Dec-12 00:59 005 5 gusting 10 0.6
2017-Dec-12 00:49 328 5 gusting 11 0.6
2017-Dec-12 00:39 012 6 gusting 13 0.6
2017-Dec-12 00:29 308 6 gusting 15 0.6
2017-Dec-12 00:19 355 6 gusting 14 0.6
2017-Dec-12 00:09 346 7 0.6
2017-Dec-11 23:59 346 7 gusting 14 0.6
2017-Dec-11 23:49 360 8 gusting 15 1.1
2017-Dec-11 23:39 005 6 gusting 16 1.1
2017-Dec-11 23:29 327 7 gusting 13 1.1
2017-Dec-11 23:19 325 6 gusting 14 1.1
2017-Dec-11 23:09 319 9 gusting 17 1.1
2017-Dec-11 22:59 339 10 gusting 20 1.1
2017-Dec-11 22:49 005 9 gusting 19 1.1
2017-Dec-11 22:39 343 11 gusting 16 1.7
2017-Dec-11 22:29 334 9 gusting 15 1.7
2017-Dec-11 22:19 318 9 gusting 21 1.7
2017-Dec-11 22:09 351 11 gusting 21 1.7
2017-Dec-11 21:59 347 8 gusting 17 1.7
2017-Dec-11 21:49 322 10 gusting 16 1.7
2017-Dec-11 21:39 325 9 gusting 18 2.2
2017-Dec-11 21:29 351 10 gusting 18 1.7
2017-Dec-11 21:20 310 7 gusting 16 1.7
2017-Dec-11 21:09 324 8 gusting 17 1.1
2017-Dec-11 20:59 341 7 gusting 13 1.1
2017-Dec-11 20:49 355 9 gusting 14 1.1
2017-Dec-11 20:39 355 9 gusting 16 1.7
2017-Dec-11 20:29 327 8 gusting 15 2.2
2017-Dec-11 20:19 005 9 gusting 17 2.2
2017-Dec-11 20:09 318 1 gusting 6 2.8
2017-Dec-11 19:59 333 1 gusting 5 2.2
2017-Dec-11 19:49 311 2.2
2017-Dec-11 19:39 311 2.2
2017-Dec-11 19:29 311 0 gusting 5 2.2
2017-Dec-11 19:19 349 2.2
2017-Dec-11 19:09 066 0 gusting 4 2.2
2017-Dec-11 18:59 050 2 gusting 4 2.2
2017-Dec-11 18:49 343 2.2
2017-Dec-11 18:09 345 1 gusting 6 2.8
2017-Dec-11 17:59 251 0 gusting 2 3.3
2017-Dec-11 17:39 253 0 gusting 5 3.3
2017-Dec-11 17:29 257 0 gusting 4 3.3
2017-Dec-11 17:19 261 2 gusting 6 3.9
2017-Dec-11 17:09 286 0 gusting 3 3.9
2017-Dec-11 16:59 303 1 gusting 8 3.9
2017-Dec-11 16:49 313 4 gusting 9 3.9
2017-Dec-11 16:39 253 0 gusting 5 4.4
2017-Dec-11 16:29 257 1 gusting 5 5.0
2017-Dec-11 16:19 297 0 gusting 7 5.0
2017-Dec-11 16:09 298 1 gusting 6 5.6
2017-Dec-11 15:59 321 2 gusting 5 5.6
2017-Dec-11 15:49 329 0 gusting 6 5.6
2017-Dec-11 15:39 304 5.6
2017-Dec-11 15:29 332 4 gusting 8 5.6
2017-Dec-11 15:19 321 3 gusting 10 5.0
2017-Dec-11 15:09 326 5 gusting 11 5.0
2017-Dec-11 14:59 320 3 gusting 7 5.0
2017-Dec-11 14:49 280 1 gusting 8 5.0
2017-Dec-11 14:39 258 2 gusting 9 5.0
2017-Dec-11 14:29 323 0 gusting 8 5.0
2017-Dec-11 14:19 323 6 gusting 16 5.0
2017-Dec-11 14:09 298 3 gusting 6 5.0
2017-Dec-11 13:59 322 2 gusting 10 5.6
2017-Dec-11 13:49 304 3 gusting 12 5.6
2017-Dec-11 13:39 317 5 gusting 12 6.1
2017-Dec-11 13:29 298 5 gusting 9 6.1
2017-Dec-11 13:19 300 6 gusting 11 6.1
2017-Dec-11 13:09 260 6 gusting 13 6.1
2017-Dec-11 12:59 294 6 gusting 12 5.0
2017-Dec-11 12:49 293 6 gusting 12 5.0
2017-Dec-11 12:39 290 0 gusting 8 5.0
2017-Dec-11 12:29 306 2 gusting 7 4.4
2017-Dec-11 12:19 267 0 gusting 5 4.4
2017-Dec-11 12:09 288 1 gusting 13 4.4
2017-Dec-11 11:59 290 5 gusting 11 4.4
2017-Dec-11 11:49 302 4 gusting 17 3.9
2017-Dec-11 11:39 205 0 gusting 19 3.9
2017-Dec-11 11:29 304 1 gusting 13 3.9
2017-Dec-11 11:19 309 2 gusting 12 3.9
2017-Dec-11 11:09 315 3 gusting 14 3.9
2017-Dec-11 10:59 302 2 gusting 18 3.9
2017-Dec-11 10:49 313 7 gusting 15 3.9
2017-Dec-11 10:39 256 6 gusting 18 3.9
2017-Dec-11 10:29 317 6 gusting 15 3.9
2017-Dec-11 10:19 355 7 gusting 15 4.4
2017-Dec-11 10:09 299 4 gusting 13 4.4
2017-Dec-11 09:59 327 3 gusting 8 3.9
2017-Dec-11 09:49 313 1 gusting 9 3.9
2017-Dec-11 09:39 329 1 gusting 10 3.9
2017-Dec-11 09:29 281 0 gusting 7 3.9
2017-Dec-11 09:19 304 3 gusting 6 3.9
2017-Dec-11 09:09 088 3 gusting 7 3.3
2017-Dec-11 08:59 130 0 gusting 4 3.9
2017-Dec-11 08:49 203 0 gusting 6 3.9
2017-Dec-11 08:39 269 0 gusting 10 3.9
2017-Dec-11 08:29 270 3 gusting 14 3.9
2017-Dec-11 08:09 257 3 gusting 7 3.9
2017-Dec-11 07:59 244 1 gusting 9 3.9
2017-Dec-11 07:49 273 5 gusting 9 3.9
2017-Dec-11 07:39 290 2 gusting 9 3.9
2017-Dec-11 07:29 246 0 gusting 9 3.9
2017-Dec-11 07:19 273 3 gusting 13 4.4
2017-Dec-11 07:09 301 5 gusting 11 4.4
2017-Dec-11 06:59 290 3 gusting 13 4.4
2017-Dec-11 06:49 250 3 gusting 11 3.9
2017-Dec-11 06:39 267 4 gusting 13 3.9
2017-Dec-11 06:29 267 2 gusting 8 3.9
2017-Dec-11 06:19 308 3 gusting 14 3.9
2017-Dec-11 06:09 279 3 gusting 8 3.9
2017-Dec-11 05:59 253 3.9
2017-Dec-11 05:49 253 0 gusting 3 4.4
2017-Dec-11 05:39 254 4.4
2017-Dec-11 05:19 247 1 gusting 5 4.4
2017-Dec-11 05:09 242 1 gusting 6 4.4
2017-Dec-11 04:59 221 0 gusting 8 4.4
2017-Dec-11 04:49 255 2 gusting 13 4.4
2017-Dec-11 04:39 293 4 gusting 15 4.4
2017-Dec-11 04:29 255 2 gusting 12 5.0
2017-Dec-11 04:19 240 6 gusting 13 5.0
2017-Dec-11 04:09 214 0 gusting 11 5.0
2017-Dec-11 03:59 262 8 gusting 22 5.0
2017-Dec-11 03:49 310 10 gusting 20 5.0
2017-Dec-11 03:39 319 12 gusting 30 5.0
2017-Dec-11 03:29 295 16 gusting 29 5.0
2017-Dec-11 03:19 295 10 gusting 25 5.0
2017-Dec-11 03:09 360 12 gusting 29 5.6
2017-Dec-11 02:49 312 13 gusting 28 5.6
2017-Dec-11 02:39 308 15 gusting 29 5.0
2017-Dec-11 02:29 292 13 gusting 23 5.6
2017-Dec-11 02:19 277 10 gusting 29 5.6
2017-Dec-11 02:09 313 5 gusting 14 5.0
2017-Dec-11 01:59 263 10 gusting 19 5.0
2017-Dec-11 01:49 311 10 gusting 21 7.2
2017-Dec-11 01:39 246 3 gusting 18 7.8
2017-Dec-11 01:29 238 3 gusting 20 7.8
2017-Dec-11 01:19 254 6 gusting 20 7.8
2017-Dec-11 01:09 193 8 gusting 14 7.8